Springhill, Louisiana
Current Conditions -  °F | °C
As of 7:14 PM on Saturday 25 Oct 2014 (Local Time) from KMNE Reporting Station
Clear Clear  
Wind Chill: 72°   Ceiling: Unl
Heat Index: 72°   Visibility: 10mi
Dew Point: 66°   Wind: 0mph
Humidity: 83%   Direction: NA
Pressure: 30.07"   Gusts: NA
Location:  33.01°N, 93.47°W
Report Text: KMNE 260014Z AUTO 00000KT 10SM CLR 22/19 A3007 RMK AO2
Loading
Personal Weather Stations






























Interactive Weather Map
Tropical Storm Tracking
New forecast layout! Learn more

10-Day Weather Forecast

Advertisements
Track Severe Weather on mobile